createdAt,value
2022-08-14T07:23:01.441Z,97782.00
2022-08-14T07:28:34.780Z,97779.00
2022-08-14T07:33:50.208Z,97785.00
2022-08-14T07:38:53.714Z,97788.00
2022-08-14T07:43:57.711Z,97786.00
2022-08-14T07:49:00.687Z,97783.00
2022-08-14T07:54:11.063Z,97777.00
2022-08-14T07:59:18.561Z,97781.00
2022-08-14T08:04:29.461Z,97776.00
2022-08-14T08:09:41.529Z,97774.00
2022-08-14T08:14:56.470Z,97777.00
2022-08-14T08:20:11.717Z,97774.00
2022-08-14T08:25:17.955Z,97775.00
2022-08-14T08:30:22.447Z,97772.00
2022-08-14T08:35:46.152Z,97772.00
2022-08-14T08:40:51.905Z,97771.00
2022-08-14T08:46:01.051Z,97761.00
2022-08-14T08:51:05.144Z,97749.00
2022-08-14T08:56:08.122Z,97739.00
2022-08-14T09:01:12.991Z,97738.00
2022-08-14T09:07:00.571Z,97735.00
2022-08-14T09:11:38.666Z,97725.00
2022-08-14T09:16:45.180Z,97713.00
2022-08-14T09:21:51.027Z,97711.00
2022-08-14T09:26:57.992Z,97706.00
2022-08-14T09:32:03.674Z,97697.00
2022-08-14T09:37:40.593Z,97699.00
2022-08-14T09:43:00.064Z,97702.00
2022-08-14T09:48:13.868Z,97694.00
2022-08-14T09:54:18.579Z,97689.00
2022-08-14T09:59:16.009Z,97684.00
2022-08-14T10:04:33.361Z,97674.00
2022-08-14T10:10:00.106Z,97656.00
2022-08-14T10:15:16.931Z,97661.00
2022-08-14T10:20:39.913Z,97644.00
2022-08-14T10:25:48.838Z,97655.00
2022-08-14T10:30:54.942Z,97655.00
2022-08-14T10:36:00.904Z,97646.00
2022-08-14T10:41:14.857Z,97647.00
2022-08-14T10:46:59.088Z,97630.00
2022-08-14T10:51:42.924Z,97624.00
2022-08-14T10:56:45.915Z,97630.00
2022-08-14T11:01:48.956Z,97642.00
2022-08-14T11:06:56.096Z,97651.00
2022-08-14T11:12:34.071Z,97634.00
2022-08-14T11:17:22.431Z,97622.00
2022-08-14T11:22:52.932Z,97614.00
2022-08-14T11:27:55.001Z,97623.00
2022-08-14T11:32:58.813Z,97616.00
2022-08-14T11:38:04.547Z,97613.00
2022-08-14T11:43:09.278Z,97608.00
2022-08-14T11:49:04.048Z,97608.00
2022-08-14T11:53:54.157Z,97612.00
2022-08-14T11:58:57.592Z,97598.00
2022-08-14T12:04:31.749Z,97587.00
2022-08-14T12:09:42.973Z,97589.00
2022-08-14T12:14:56.985Z,97578.00
2022-08-14T12:20:06.549Z,97573.00
2022-08-14T12:25:31.280Z,97556.00
2022-08-14T12:30:43.133Z,97551.00
2022-08-14T12:35:46.665Z,97550.00
2022-08-14T12:40:56.094Z,97549.00
2022-08-14T12:45:59.184Z,97546.00
2022-08-14T12:51:04.400Z,97543.00
2022-08-14T12:56:22.338Z,97534.00
2022-08-14T13:02:00.468Z,97527.00
2022-08-14T13:07:08.607Z,97529.00
2022-08-14T13:12:33.159Z,97532.00
2022-08-14T13:17:56.985Z,97528.00
2022-08-14T13:23:03.617Z,97536.00
2022-08-14T13:28:11.171Z,97529.00
2022-08-14T13:33:17.607Z,97513.00
2022-08-14T13:38:22.312Z,97511.00
2022-08-14T13:43:25.949Z,97491.00
2022-08-14T13:48:39.611Z,97492.00
2022-08-14T13:54:07.146Z,97478.00
2022-08-14T13:59:15.962Z,97464.00
2022-08-14T14:04:27.157Z,97455.00
2022-08-14T14:09:32.450Z,97462.00
2022-08-14T14:14:51.538Z,97460.00
2022-08-14T14:19:58.411Z,97447.00
2022-08-14T14:25:02.651Z,97450.00
2022-08-14T14:30:24.444Z,97453.00
2022-08-14T14:35:32.954Z,97440.00
2022-08-14T14:40:53.583Z,97443.00
2022-08-14T14:46:00.093Z,97435.00
2022-08-14T14:51:03.672Z,97439.00
2022-08-14T14:56:49.458Z,97435.00
2022-08-14T15:01:39.423Z,97425.00
2022-08-14T15:06:47.481Z,97424.00
2022-08-14T15:11:51.117Z,97425.00
2022-08-14T15:16:53.945Z,97424.00
2022-08-14T15:22:02.449Z,97420.00
2022-08-14T15:27:06.928Z,97414.00
2022-08-14T15:32:11.384Z,97407.00
2022-08-14T15:37:16.616Z,97401.00
2022-08-14T15:42:20.675Z,97391.00
2022-08-14T15:47:28.925Z,97394.00
2022-08-14T15:52:37.252Z,97398.00
2022-08-14T15:58:01.555Z,97394.00
2022-08-14T16:03:08.728Z,97379.00
2022-08-14T16:08:27.004Z,97382.00
2022-08-14T16:13:42.553Z,97387.00
2022-08-14T16:18:46.833Z,97384.00
2022-08-14T16:23:53.686Z,97385.00
2022-08-14T16:29:05.064Z,97382.00
2022-08-14T16:34:47.050Z,97376.00
2022-08-14T16:39:37.166Z,97383.00
2022-08-14T16:44:41.306Z,97378.00
2022-08-14T16:50:02.729Z,97368.00
2022-08-14T16:55:11.005Z,97351.00
2022-08-14T17:00:44.288Z,97348.00
2022-08-14T17:05:48.244Z,97339.00
2022-08-14T17:10:51.083Z,97334.00
2022-08-14T17:16:25.157Z,97316.00
2022-08-14T17:21:41.782Z,97315.00
2022-08-14T17:26:44.824Z,97313.00
2022-08-14T17:31:58.804Z,97303.00
2022-08-14T17:37:04.760Z,97299.00
2022-08-14T17:42:13.301Z,97299.00
2022-08-14T17:47:18.341Z,97299.00
2022-08-14T17:52:36.394Z,97309.00
2022-08-14T17:57:44.670Z,97312.00
2022-08-14T18:02:52.136Z,97309.00
2022-08-14T18:08:31.277Z,97314.00
2022-08-14T18:13:18.853Z,97316.00
2022-08-14T18:18:44.761Z,97329.00
2022-08-14T18:23:51.007Z,97324.00
2022-08-14T18:28:56.280Z,97326.00
2022-08-14T18:34:11.762Z,97331.00
2022-08-14T18:39:22.794Z,97333.00
2022-08-14T18:44:50.743Z,97342.00
2022-08-14T18:50:00.773Z,97352.00
2022-08-14T18:55:22.484Z,97340.00
2022-08-14T19:00:40.129Z,97347.00
2022-08-14T19:05:47.710Z,97343.00
2022-08-14T19:10:57.685Z,97335.00
2022-08-14T19:16:13.511Z,97347.00
2022-08-14T19:21:34.945Z,97339.00
2022-08-14T19:26:51.893Z,97337.00
2022-08-14T19:31:59.631Z,97339.00
2022-08-14T19:37:06.733Z,97349.00
2022-08-14T19:42:28.426Z,97339.00
2022-08-14T19:47:41.257Z,97345.00
2022-08-14T19:52:45.905Z,97351.00
2022-08-14T19:57:58.709Z,97346.00
2022-08-14T20:03:14.252Z,97345.00
2022-08-14T20:09:05.284Z,97339.00
2022-08-14T20:13:56.043Z,97337.00
2022-08-14T20:19:13.894Z,97325.00
2022-08-14T20:24:30.722Z,97330.00
2022-08-14T20:29:37.900Z,97326.00
2022-08-14T20:34:51.588Z,97320.00
2022-08-14T20:39:55.827Z,97325.00
2022-08-14T20:45:23.682Z,97321.00
2022-08-14T20:50:29.655Z,97319.00
2022-08-14T20:55:41.454Z,97326.00
2022-08-14T21:00:57.623Z,97315.00
2022-08-14T21:06:17.263Z,97319.00
2022-08-14T21:11:25.073Z,97316.00
2022-08-14T21:16:35.857Z,97311.00
2022-08-14T21:21:55.517Z,97318.00
2022-08-14T21:27:12.405Z,97311.00
2022-08-14T21:32:33.754Z,97308.00
2022-08-14T21:37:49.122Z,97294.00
2022-08-14T21:42:52.505Z,97295.00
2022-08-14T21:47:56.523Z,97293.00
2022-08-14T21:53:03.593Z,97292.00
2022-08-14T21:58:54.311Z,97280.00
2022-08-14T22:03:35.098Z,97276.00
2022-08-14T22:08:38.839Z,97273.00
2022-08-14T22:13:51.702Z,97275.00
2022-08-14T22:18:54.899Z,97276.00
2022-08-14T22:24:00.064Z,97280.00
2022-08-14T22:29:03.124Z,97272.00
